createdAt,value
2022-08-06T00:04:52.118Z,99858.30
2022-08-06T00:13:15.108Z,99855.38
2022-08-06T00:21:41.529Z,99859.29
2022-08-06T00:30:09.931Z,99857.82
2022-08-06T00:38:41.487Z,99856.98
2022-08-06T00:47:11.786Z,99845.30
2022-08-06T00:55:59.642Z,99849.99
2022-08-06T01:04:27.976Z,99843.38
2022-08-06T01:12:51.628Z,99838.02
2022-08-06T01:22:28.574Z,99846.29
2022-08-06T01:30:25.152Z,99847.46
2022-08-06T01:38:59.838Z,99842.20
2022-08-06T01:47:27.983Z,99838.84
2022-08-06T01:56:12.319Z,99844.29
2022-08-06T02:04:52.650Z,99858.44
2022-08-06T02:13:18.384Z,99865.98
2022-08-06T02:21:50.547Z,99866.83
2022-08-06T02:30:21.671Z,99859.53
2022-08-06T02:39:04.296Z,99859.80
2022-08-06T02:47:53.323Z,99865.72
2022-08-06T02:56:16.191Z,99863.09
2022-08-06T03:04:54.497Z,99853.37
2022-08-06T03:13:23.268Z,99868.52
2022-08-06T03:21:55.677Z,99876.52
2022-08-06T03:30:30.544Z,99871.93
2022-08-06T03:39:09.882Z,99870.67
2022-08-06T03:48:05.667Z,99872.48
2022-08-06T03:56:31.216Z,99879.94
2022-08-06T04:04:54.762Z,99878.82
2022-08-06T04:14:03.598Z,99880.68
2022-08-06T04:23:08.562Z,99881.38
2022-08-06T04:30:50.530Z,99878.66
2022-08-06T04:39:15.269Z,99870.77
2022-08-06T04:47:41.844Z,99878.45
2022-08-06T04:56:15.096Z,99900.81
2022-08-06T05:04:40.184Z,99899.70
2022-08-06T05:13:07.416Z,99905.59
2022-08-06T05:22:05.116Z,99916.60
2022-08-06T05:30:19.519Z,99926.89
2022-08-06T05:38:52.005Z,99939.92
2022-08-06T05:47:25.701Z,99953.77
2022-08-06T05:56:38.541Z,99960.98
2022-08-06T06:06:02.724Z,99980.46
2022-08-06T06:13:59.150Z,100005.54
2022-08-06T06:22:35.866Z,100032.09
2022-08-06T06:31:58.389Z,100050.34
2022-08-06T06:40:12.714Z,100068.27
2022-08-06T06:48:55.968Z,100073.65
2022-08-06T06:57:43.160Z,100082.48
2022-08-06T07:06:11.785Z,100097.59
2022-08-06T07:15:00.622Z,100110.02
2022-08-06T07:24:06.673Z,100127.36
2022-08-06T07:32:32.593Z,100142.56
2022-08-06T07:41:09.057Z,100158.14
2022-08-06T07:50:00.426Z,100166.80
2022-08-06T07:58:30.670Z,100182.54
2022-08-06T08:07:00.065Z,100182.91
2022-08-06T08:15:23.888Z,100191.99
2022-08-06T08:23:48.760Z,100203.90
2022-08-06T08:32:19.382Z,100213.08
2022-08-06T08:40:45.115Z,100223.91
2022-08-06T08:49:17.591Z,100245.79
2022-08-06T08:58:40.447Z,100266.42
2022-08-06T09:06:29.029Z,100301.15
2022-08-06T09:14:53.641Z,100318.55
2022-08-06T09:23:19.602Z,100328.77
2022-08-06T09:31:44.614Z,100343.27
2022-08-06T09:40:20.242Z,100355.15
2022-08-06T09:49:48.686Z,100362.16
2022-08-06T09:57:46.826Z,100363.20
2022-08-06T10:06:15.669Z,100362.35
2022-08-06T10:14:38.714Z,100369.25
2022-08-06T10:23:03.719Z,100391.83
2022-08-06T10:31:27.860Z,100392.30
2022-08-06T10:40:08.673Z,100399.50
2022-08-06T10:50:26.382Z,100418.09
2022-08-06T10:57:35.543Z,100410.95
2022-08-06T11:06:20.696Z,100414.78
2022-08-06T11:14:53.081Z,100455.11
2022-08-06T11:23:52.086Z,100452.27
2022-08-06T11:32:02.905Z,100466.13
2022-08-06T11:40:28.105Z,100476.89
2022-08-06T11:49:06.045Z,100459.92
2022-08-06T11:57:40.559Z,100452.34
2022-08-06T12:06:29.315Z,100448.98
2022-08-06T12:14:54.644Z,100451.30
2022-08-06T12:23:54.620Z,100457.73
2022-08-06T12:32:53.836Z,100484.77
2022-08-06T12:41:20.411Z,100501.92
2022-08-06T12:50:30.357Z,100511.59
2022-08-06T12:58:55.635Z,100512.80
2022-08-06T13:07:21.514Z,100523.62
2022-08-06T13:16:02.153Z,100530.35
2022-08-06T13:24:30.925Z,100534.94
2022-08-06T13:33:12.795Z,100544.48
2022-08-06T13:41:37.308Z,100559.26
2022-08-06T13:50:03.524Z,100565.17
2022-08-06T13:58:30.852Z,100569.89
2022-08-06T14:06:59.414Z,100574.84
2022-08-06T14:15:23.090Z,100578.89
2022-08-06T14:24:01.022Z,100583.77
2022-08-06T14:32:29.640Z,100597.50
2022-08-06T14:41:12.865Z,100603.98
2022-08-06T14:49:51.143Z,100611.78
2022-08-06T14:58:15.906Z,100621.05
2022-08-06T15:06:44.421Z,100622.84
2022-08-06T15:15:17.462Z,100633.45
2022-08-06T15:23:52.873Z,100638.44
2022-08-06T15:32:18.943Z,100649.23
2022-08-06T15:40:42.951Z,100649.71
2022-08-06T15:49:07.670Z,100650.30
2022-08-06T15:57:49.732Z,100650.98
2022-08-06T16:06:25.656Z,100649.21
2022-08-06T16:14:57.209Z,100650.91
2022-08-06T16:23:55.487Z,100644.15
2022-08-06T16:32:07.409Z,100647.31
2022-08-06T16:40:31.391Z,100655.36
2022-08-06T16:48:54.544Z,100650.64
2022-08-06T16:57:19.180Z,100657.02
2022-08-06T17:05:46.419Z,100660.67
2022-08-06T17:14:17.047Z,100665.06
2022-08-06T17:22:44.965Z,100668.77
2022-08-06T17:31:07.839Z,100665.87
2022-08-06T17:39:38.650Z,100674.94
2022-08-06T17:48:05.122Z,100673.45
2022-08-06T17:56:30.269Z,100674.02
2022-08-06T18:04:54.631Z,100681.30
2022-08-06T18:13:20.322Z,100679.31
2022-08-06T18:21:50.542Z,100691.83
2022-08-06T18:30:36.657Z,100699.16
2022-08-06T18:39:09.544Z,100704.10
2022-08-06T18:47:40.303Z,100711.45
2022-08-06T18:56:05.566Z,100718.92
2022-08-06T19:04:31.133Z,100721.61
2022-08-06T19:12:54.136Z,100725.83
2022-08-06T19:21:17.891Z,100729.16
2022-08-06T19:29:58.052Z,100740.60
2022-08-06T19:38:24.571Z,100753.98
2022-08-06T19:46:56.459Z,100763.09
2022-08-06T19:56:05.339Z,100773.43
2022-08-06T20:04:04.556Z,100776.88
2022-08-06T20:12:41.155Z,100778.88
2022-08-06T20:21:07.376Z,100776.53
2022-08-06T20:29:34.306Z,100785.45
2022-08-06T20:38:13.627Z,100789.52
2022-08-06T20:47:01.078Z,100795.66
2022-08-06T20:55:20.799Z,100803.20
2022-08-06T21:05:16.464Z,100806.05
2022-08-06T21:12:36.724Z,100805.40
2022-08-06T21:21:19.524Z,100810.72
2022-08-06T21:30:09.191Z,100812.09
2022-08-06T21:38:26.453Z,100806.27
2022-08-06T21:46:58.852Z,100810.95
2022-08-06T21:56:37.363Z,100810.41
2022-08-06T22:04:37.984Z,100809.54
2022-08-06T22:13:12.558Z,100817.19
2022-08-06T22:21:50.316Z,100815.85
2022-08-06T22:30:34.035Z,100815.15
2022-08-06T22:39:00.133Z,100819.14
2022-08-06T22:47:24.958Z,100824.05
2022-08-06T22:55:57.056Z,100832.20
2022-08-06T23:04:20.664Z,100827.09
2022-08-06T23:12:47.660Z,100827.42
2022-08-06T23:21:50.510Z,100840.52
2022-08-06T23:30:12.525Z,100842.69
2022-08-06T23:38:35.395Z,100838.83
2022-08-06T23:47:52.425Z,100847.98
2022-08-06T23:55:59.592Z,100850.77
